createdAt,value
2023-02-08T00:01:20.235Z,98.75
2023-02-08T00:03:48.245Z,99.05
2023-02-08T00:06:17.426Z,99.00
2023-02-08T00:08:45.836Z,98.91
2023-02-08T00:11:13.808Z,99.24
2023-02-08T00:13:43.003Z,99.06
2023-02-08T00:16:13.436Z,98.34
2023-02-08T00:18:42.405Z,98.61
2023-02-08T00:21:16.580Z,98.43
2023-02-08T00:23:44.795Z,98.43
2023-02-08T00:26:13.455Z,98.29
2023-02-08T00:28:42.304Z,97.85
2023-02-08T00:31:10.211Z,97.31
2023-02-08T00:33:38.406Z,97.28
2023-02-08T00:36:08.744Z,96.78
2023-02-08T00:38:37.169Z,97.17
2023-02-08T00:41:05.232Z,97.53
2023-02-08T00:43:33.200Z,97.77
2023-02-08T00:46:01.587Z,98.08
2023-02-08T00:48:30.178Z,97.95
2023-02-08T00:51:06.990Z,98.09
2023-02-08T00:53:37.275Z,97.88
2023-02-08T00:56:08.035Z,97.98
2023-02-08T00:58:36.385Z,97.95
2023-02-08T01:01:05.951Z,97.63
2023-02-08T01:03:39.604Z,96.87
2023-02-08T01:06:10.169Z,97.18
2023-02-08T01:08:38.509Z,96.99
2023-02-08T01:11:12.032Z,96.53
2023-02-08T01:13:40.725Z,96.72
2023-02-08T01:16:22.240Z,97.17
2023-02-08T01:18:52.624Z,97.05
2023-02-08T01:21:23.874Z,97.32
2023-02-08T01:23:52.562Z,97.38
2023-02-08T01:26:21.718Z,96.72
2023-02-08T01:28:51.302Z,96.72
2023-02-08T01:31:22.360Z,96.78
2023-02-08T01:33:50.707Z,96.97
2023-02-08T01:36:18.827Z,96.96
2023-02-08T01:38:47.581Z,96.72
2023-02-08T01:41:37.540Z,96.63
2023-02-08T01:44:11.908Z,96.51
2023-02-08T01:46:42.382Z,96.42
2023-02-08T01:49:22.700Z,96.58
2023-02-08T01:51:55.976Z,96.91
2023-02-08T01:54:30.547Z,96.67
2023-02-08T01:56:59.094Z,96.52
2023-02-08T01:59:33.879Z,96.35
2023-02-08T02:02:04.818Z,95.93
2023-02-08T02:04:32.857Z,95.92
2023-02-08T02:07:03.928Z,95.73
2023-02-08T02:09:40.191Z,95.82
2023-02-08T02:12:09.650Z,96.25
2023-02-08T02:14:38.903Z,96.40
2023-02-08T02:17:07.405Z,96.53
2023-02-08T02:20:03.564Z,96.18
2023-02-08T02:22:31.372Z,95.93
2023-02-08T02:25:30.500Z,95.70
2023-02-08T02:28:53.055Z,95.03
2023-02-08T02:31:57.406Z,94.73
2023-02-08T02:35:01.787Z,95.00
2023-02-08T02:37:44.799Z,95.00
2023-02-08T02:40:32.084Z,94.83
2023-02-08T02:43:30.006Z,95.17
2023-02-08T02:46:19.827Z,95.08
2023-02-08T02:48:50.573Z,95.18
2023-02-08T02:51:27.415Z,95.33
2023-02-08T02:54:17.277Z,94.88
2023-02-08T02:56:49.161Z,95.26
2023-02-08T02:59:18.282Z,95.60
2023-02-08T03:01:47.168Z,95.76
2023-02-08T03:04:18.168Z,95.75
2023-02-08T03:06:49.010Z,95.52
2023-02-08T03:09:37.520Z,95.84
2023-02-08T03:12:33.640Z,95.90
2023-02-08T03:15:19.684Z,95.24
2023-02-08T03:18:19.449Z,95.28
2023-02-08T03:21:17.850Z,95.48
2023-02-08T03:23:51.773Z,95.43
2023-02-08T03:26:32.063Z,95.70
2023-02-08T03:29:30.895Z,95.64
2023-02-08T03:32:22.171Z,95.71
2023-02-08T03:35:18.133Z,95.78
2023-02-08T03:37:55.356Z,95.78
2023-02-08T03:40:27.090Z,95.92
2023-02-08T03:43:00.245Z,95.91
2023-02-08T03:45:45.682Z,95.87
2023-02-08T03:48:14.507Z,95.89
2023-02-08T03:50:47.283Z,96.07
2023-02-08T03:53:22.516Z,95.94
2023-02-08T03:55:58.196Z,95.84
2023-02-08T03:58:34.690Z,95.76
2023-02-08T04:01:20.161Z,95.67
2023-02-08T04:03:53.178Z,95.40
2023-02-08T04:06:22.521Z,95.45
2023-02-08T04:08:50.654Z,95.61
2023-02-08T04:11:18.643Z,95.41
2023-02-08T04:13:46.530Z,95.29
2023-02-08T04:16:14.636Z,95.44
2023-02-08T04:18:43.010Z,95.22
2023-02-08T04:21:10.970Z,95.45
2023-02-08T04:23:38.989Z,95.44
2023-02-08T04:26:08.885Z,95.55
2023-02-08T04:28:36.850Z,95.48
2023-02-08T04:31:05.055Z,95.42
2023-02-08T04:33:32.970Z,95.37
2023-02-08T04:36:00.835Z,95.68
2023-02-08T04:38:28.749Z,95.73
2023-02-08T04:40:56.716Z,95.75
2023-02-08T04:43:24.933Z,95.42
2023-02-08T04:45:52.936Z,95.35
2023-02-08T04:48:21.272Z,95.30
2023-02-08T04:50:49.124Z,95.37
2023-02-08T04:53:17.198Z,94.98
2023-02-08T04:55:45.232Z,94.86
2023-02-08T04:58:13.165Z,94.88
2023-02-08T05:00:41.508Z,94.67
2023-02-08T05:03:10.359Z,94.70
2023-02-08T05:05:38.406Z,94.68
2023-02-08T05:08:06.618Z,94.66
2023-02-08T05:10:34.761Z,94.14
2023-02-08T05:13:02.924Z,94.30
2023-02-08T05:15:31.001Z,94.66
2023-02-08T05:17:58.833Z,94.21
2023-02-08T05:20:26.850Z,93.77
2023-02-08T05:22:54.844Z,93.83
2023-02-08T05:25:23.114Z,93.88
2023-02-08T05:27:51.395Z,94.31
2023-02-08T05:30:19.660Z,94.43
2023-02-08T05:32:47.666Z,94.51
2023-02-08T05:35:15.730Z,94.39
2023-02-08T05:37:43.740Z,94.43
2023-02-08T05:40:13.307Z,94.47
2023-02-08T05:42:42.471Z,94.25
2023-02-08T05:45:10.335Z,94.39
2023-02-08T05:47:38.226Z,94.53
2023-02-08T05:50:06.834Z,94.45
2023-02-08T05:52:34.755Z,94.44
2023-02-08T05:55:02.751Z,94.27
2023-02-08T05:57:33.606Z,94.06
2023-02-08T06:00:05.510Z,93.95
2023-02-08T06:02:34.337Z,93.38
2023-02-08T06:05:02.195Z,93.02
2023-02-08T06:07:30.250Z,93.32
2023-02-08T06:09:58.101Z,93.81
2023-02-08T06:12:26.122Z,93.78
2023-02-08T06:14:53.886Z,94.03
2023-02-08T06:17:21.746Z,94.16
2023-02-08T06:19:49.683Z,94.00
2023-02-08T06:22:17.687Z,93.85
2023-02-08T06:24:45.622Z,93.60
2023-02-08T06:27:13.631Z,93.53
2023-02-08T06:29:41.533Z,92.67
2023-02-08T06:32:09.653Z,93.20
2023-02-08T06:34:37.573Z,93.20
2023-02-08T06:37:05.734Z,93.45
2023-02-08T06:39:34.294Z,93.45
2023-02-08T06:42:02.256Z,93.39
2023-02-08T06:44:30.287Z,93.67
2023-02-08T06:46:58.157Z,93.54
2023-02-08T06:49:25.966Z,93.42
2023-02-08T06:51:54.027Z,93.62
2023-02-08T06:54:21.906Z,93.59
2023-02-08T06:56:49.901Z,93.59
2023-02-08T06:59:17.808Z,93.45
2023-02-08T07:01:45.757Z,92.64
2023-02-08T07:04:13.685Z,92.45
2023-02-08T07:06:41.541Z,92.69
2023-02-08T07:09:09.394Z,92.56
2023-02-08T07:11:37.351Z,92.67
2023-02-08T07:14:05.457Z,92.41
2023-02-08T07:16:33.386Z,92.30
2023-02-08T07:19:01.389Z,91.96
2023-02-08T07:21:29.350Z,92.02
2023-02-08T07:23:57.283Z,92.61
2023-02-08T07:26:25.091Z,92.60
2023-02-08T07:28:52.865Z,92.08
2023-02-08T07:31:20.832Z,92.28
2023-02-08T07:33:49.502Z,91.09
2023-02-08T07:36:17.322Z,91.37
2023-02-08T07:38:45.235Z,91.48
2023-02-08T07:41:14.860Z,90.93
2023-02-08T07:43:43.256Z,91.45
2023-02-08T07:46:20.892Z,91.70
2023-02-08T07:48:52.868Z,91.66
2023-02-08T07:51:20.814Z,91.75
2023-02-08T07:53:48.873Z,90.79
2023-02-08T07:56:17.513Z,90.78
2023-02-08T07:58:46.661Z,90.91
2023-02-08T08:01:22.260Z,90.79
2023-02-08T08:03:52.423Z,90.29
2023-02-08T08:06:22.013Z,88.90
2023-02-08T08:08:50.770Z,88.78
2023-02-08T08:11:20.843Z,89.36
2023-02-08T08:13:48.961Z,88.97
2023-02-08T08:16:17.424Z,88.72
2023-02-08T08:18:45.955Z,89.73
2023-02-08T08:21:15.497Z,89.59
2023-02-08T08:23:43.590Z,89.47
2023-02-08T08:26:18.751Z,89.21
2023-02-08T08:28:47.455Z,88.98
2023-02-08T08:31:21.539Z,88.37
2023-02-08T08:33:50.611Z,87.70
2023-02-08T08:36:18.643Z,88.32
2023-02-08T08:38:46.712Z,87.70
2023-02-08T08:41:22.454Z,87.97
2023-02-08T08:43:50.574Z,87.31
2023-02-08T08:46:18.564Z,87.44
2023-02-08T08:48:46.899Z,86.63
2023-02-08T08:51:15.234Z,86.47
2023-02-08T08:53:43.332Z,87.25
2023-02-08T08:56:11.843Z,86.16
2023-02-08T08:58:40.094Z,85.44
2023-02-08T09:01:07.981Z,84.45
2023-02-08T09:03:36.203Z,84.69
2023-02-08T09:06:04.086Z,85.77
2023-02-08T09:08:32.077Z,86.28
2023-02-08T09:11:11.742Z,84.01
2023-02-08T09:13:40.172Z,85.46
2023-02-08T09:16:15.002Z,85.81
2023-02-08T09:18:44.215Z,86.03
2023-02-08T09:21:18.772Z,85.65
2023-02-08T09:23:50.011Z,85.59
2023-02-08T09:26:19.885Z,85.13
2023-02-08T09:28:48.276Z,85.23
2023-02-08T09:31:21.164Z,85.07
2023-02-08T09:33:54.342Z,84.35
2023-02-08T09:36:24.424Z,83.41
2023-02-08T09:39:00.255Z,84.37
2023-02-08T09:41:37.021Z,84.30
2023-02-08T09:44:26.409Z,83.77
2023-02-08T09:47:08.733Z,83.10
2023-02-08T09:49:43.586Z,83.06
2023-02-08T09:52:16.517Z,83.50
2023-02-08T09:54:54.885Z,81.27
2023-02-08T09:57:28.853Z,80.76
2023-02-08T10:00:01.839Z,80.95
2023-02-08T10:02:32.797Z,81.14
2023-02-08T10:05:29.918Z,81.38
2023-02-08T10:08:00.581Z,82.04
2023-02-08T10:10:55.519Z,82.20
2023-02-08T10:13:42.545Z,80.22
2023-02-08T10:16:32.637Z,79.43
2023-02-08T10:19:18.695Z,81.04
2023-02-08T10:22:07.578Z,80.23
2023-02-08T10:24:38.480Z,80.79
2023-02-08T10:27:08.974Z,80.42
2023-02-08T10:30:04.829Z,80.64
2023-02-08T10:32:51.467Z,80.35
2023-02-08T10:35:28.987Z,80.07
2023-02-08T10:37:57.054Z,78.16
2023-02-08T10:40:35.955Z,77.69
2023-02-08T10:43:26.942Z,78.48
2023-02-08T10:46:20.463Z,77.20
2023-02-08T10:49:16.654Z,78.81
2023-02-08T10:51:46.376Z,77.49
2023-02-08T10:54:16.256Z,77.37
2023-02-08T10:56:57.694Z,76.93
2023-02-08T10:59:37.536Z,76.49
2023-02-08T11:02:29.063Z,76.27
2023-02-08T11:05:05.573Z,76.93
2023-02-08T11:07:36.471Z,76.38
2023-02-08T11:10:25.700Z,76.25
2023-02-08T11:12:56.764Z,75.78
2023-02-08T11:15:37.429Z,75.01
2023-02-08T11:18:07.184Z,74.99
2023-02-08T11:20:40.462Z,74.42
2023-02-08T11:23:30.156Z,75.30
2023-02-08T11:26:30.959Z,74.80
2023-02-08T11:29:17.976Z,74.90
2023-02-08T11:31:55.440Z,74.72
2023-02-08T11:34:26.327Z,74.48
2023-02-08T11:36:55.985Z,74.92
2023-02-08T11:39:40.514Z,74.28
2023-02-08T11:42:26.317Z,74.35
2023-02-08T11:44:57.170Z,74.32
2023-02-08T11:47:30.720Z,74.23
2023-02-08T11:50:06.169Z,73.51
2023-02-08T11:52:38.290Z,73.71
2023-02-08T11:55:18.674Z,73.48
2023-02-08T11:58:01.113Z,73.77
2023-02-08T12:00:35.341Z,74.00
2023-02-08T12:03:23.853Z,73.69
2023-02-08T12:06:13.590Z,74.16
2023-02-08T12:08:54.559Z,74.16
2023-02-08T12:11:43.948Z,73.94
2023-02-08T12:14:21.319Z,73.61
2023-02-08T12:17:10.255Z,73.89
2023-02-08T12:20:10.301Z,72.42
2023-02-08T12:22:44.833Z,73.37
2023-02-08T12:25:28.178Z,74.36
2023-02-08T12:28:03.684Z,74.33
2023-02-08T12:30:43.993Z,73.91
2023-02-08T12:33:58.701Z,73.81
2023-02-08T12:36:41.545Z,73.82
2023-02-08T12:39:53.843Z,73.99
2023-02-08T12:42:26.198Z,73.27
2023-02-08T12:45:33.041Z,73.41
2023-02-08T12:48:19.652Z,72.42
2023-02-08T12:50:59.266Z,72.37
2023-02-08T12:53:49.082Z,72.80
2023-02-08T12:56:23.337Z,73.54
2023-02-08T12:59:08.254Z,73.42
2023-02-08T13:01:47.463Z,73.75
2023-02-08T13:04:22.894Z,73.53
2023-02-08T13:06:59.360Z,74.02
2023-02-08T13:09:35.517Z,74.46
2023-02-08T13:12:19.548Z,74.20
2023-02-08T13:14:52.685Z,74.50
2023-02-08T13:17:51.711Z,74.66
2023-02-08T13:20:30.972Z,74.79
2023-02-08T13:23:11.337Z,74.78
2023-02-08T13:25:43.157Z,75.13
2023-02-08T13:28:19.780Z,75.20
2023-02-08T13:31:07.216Z,75.32
2023-02-08T13:33:59.292Z,75.54
2023-02-08T13:36:40.506Z,75.58
2023-02-08T13:39:35.177Z,75.94
2023-02-08T13:42:06.264Z,75.72
2023-02-08T13:44:38.547Z,75.75
2023-02-08T13:47:08.052Z,75.68
2023-02-08T13:49:51.223Z,76.11
2023-02-08T13:52:46.957Z,76.24
2023-02-08T13:55:32.152Z,76.11
2023-02-08T13:58:04.325Z,76.38
2023-02-08T14:00:35.565Z,76.58
2023-02-08T14:03:15.519Z,76.95
2023-02-08T14:05:53.375Z,76.94
2023-02-08T14:08:23.629Z,76.78
2023-02-08T14:11:30.463Z,76.64
2023-02-08T14:13:58.338Z,77.16
2023-02-08T14:16:40.749Z,77.08
2023-02-08T14:19:20.705Z,77.15
2023-02-08T14:22:07.014Z,77.25
2023-02-08T14:24:59.809Z,77.26
2023-02-08T14:27:39.816Z,77.30
2023-02-08T14:30:17.138Z,77.43
2023-02-08T14:33:05.190Z,77.67
2023-02-08T14:35:37.648Z,77.99
2023-02-08T14:38:23.971Z,77.96
2023-02-08T14:41:02.080Z,78.06
2023-02-08T14:43:42.589Z,78.19
2023-02-08T14:46:43.322Z,78.35
2023-02-08T14:49:17.256Z,78.39
2023-02-08T14:52:02.957Z,78.56
2023-02-08T14:54:37.613Z,78.62
2023-02-08T14:57:28.098Z,78.65
2023-02-08T15:00:00.619Z,78.85
2023-02-08T15:02:32.674Z,79.18
2023-02-08T15:05:09.414Z,79.27
2023-02-08T15:07:47.165Z,79.43
2023-02-08T15:10:17.201Z,79.70
2023-02-08T15:12:51.706Z,79.66
2023-02-08T15:15:28.883Z,79.86
2023-02-08T15:17:57.975Z,79.85
2023-02-08T15:20:32.117Z,80.03
2023-02-08T15:23:19.982Z,80.55
2023-02-08T15:26:06.653Z,80.91
2023-02-08T15:28:36.728Z,80.85
2023-02-08T15:31:09.631Z,81.17
2023-02-08T15:33:39.573Z,81.03
2023-02-08T15:36:22.701Z,81.17
2023-02-08T15:38:51.084Z,81.30
2023-02-08T15:41:31.692Z,81.56
2023-02-08T15:44:30.145Z,82.14
2023-02-08T15:47:04.489Z,82.30
2023-02-08T15:49:37.548Z,82.29
2023-02-08T15:52:06.381Z,82.54
2023-02-08T15:54:34.936Z,83.29
2023-02-08T15:57:08.010Z,83.43
2023-02-08T15:59:39.229Z,83.54
2023-02-08T16:02:26.171Z,83.48
2023-02-08T16:04:55.633Z,83.61
2023-02-08T16:07:29.440Z,83.62
2023-02-08T16:09:58.141Z,84.02
2023-02-08T16:12:28.923Z,83.85
2023-02-08T16:14:57.055Z,83.77
2023-02-08T16:17:37.758Z,84.08
2023-02-08T16:20:22.818Z,84.61
2023-02-08T16:22:59.924Z,84.82
2023-02-08T16:25:37.885Z,85.48
2023-02-08T16:28:06.154Z,85.64
2023-02-08T16:30:34.580Z,85.58
2023-02-08T16:33:08.056Z,86.19
2023-02-08T16:35:38.814Z,86.35
2023-02-08T16:38:10.244Z,86.06
2023-02-08T16:40:38.151Z,85.99
2023-02-08T16:43:20.222Z,86.61
2023-02-08T16:46:16.552Z,86.90
2023-02-08T16:48:48.899Z,86.74
2023-02-08T16:51:24.704Z,86.80
2023-02-08T16:53:56.738Z,86.93
2023-02-08T16:56:25.068Z,87.30
2023-02-08T16:58:53.342Z,87.20
2023-02-08T17:01:26.414Z,87.58
2023-02-08T17:03:54.845Z,87.50
2023-02-08T17:06:37.557Z,87.60
2023-02-08T17:09:09.039Z,87.86
2023-02-08T17:11:37.868Z,88.26
2023-02-08T17:14:10.151Z,87.89
2023-02-08T17:16:40.074Z,88.21
2023-02-08T17:19:16.572Z,88.20
2023-02-08T17:21:44.989Z,88.14
2023-02-08T17:24:12.750Z,88.70
2023-02-08T17:26:44.023Z,89.11
2023-02-08T17:29:13.036Z,89.26
2023-02-08T17:31:41.391Z,89.34
2023-02-08T17:34:09.243Z,89.44
2023-02-08T17:36:37.310Z,89.76
2023-02-08T17:39:06.093Z,90.06
2023-02-08T17:41:35.543Z,90.33
2023-02-08T17:44:04.255Z,90.49
2023-02-08T17:46:32.978Z,90.69
2023-02-08T17:49:01.933Z,91.06
2023-02-08T17:51:31.070Z,91.03
2023-02-08T17:53:59.340Z,90.66
2023-02-08T17:56:28.750Z,90.59
2023-02-08T17:58:59.287Z,90.82
2023-02-08T18:01:27.327Z,91.00
2023-02-08T18:03:55.785Z,91.25
2023-02-08T18:06:25.102Z,91.37
2023-02-08T18:08:54.875Z,91.59
2023-02-08T18:11:24.240Z,91.49
2023-02-08T18:13:53.834Z,91.75
2023-02-08T18:16:27.349Z,91.91
2023-02-08T18:19:02.047Z,91.82
2023-02-08T18:21:33.124Z,92.23
2023-02-08T18:24:05.595Z,92.22
2023-02-08T18:26:34.637Z,92.07
2023-02-08T18:29:03.514Z,91.95
2023-02-08T18:31:32.201Z,92.31
2023-02-08T18:34:00.245Z,92.72
2023-02-08T18:36:28.136Z,92.79
2023-02-08T18:38:56.997Z,92.93
2023-02-08T18:41:28.057Z,92.85
2023-02-08T18:43:58.308Z,92.77
2023-02-08T18:46:28.490Z,92.60
2023-02-08T18:48:56.979Z,92.71
2023-02-08T18:51:26.478Z,92.72
2023-02-08T18:53:55.102Z,92.89
2023-02-08T18:56:25.295Z,92.51
2023-02-08T18:58:55.636Z,92.46
2023-02-08T19:01:24.993Z,92.68
2023-02-08T19:03:54.245Z,92.88
2023-02-08T19:06:25.523Z,93.02
2023-02-08T19:08:56.033Z,93.32
2023-02-08T19:11:26.924Z,93.68
2023-02-08T19:14:01.865Z,93.77
2023-02-08T19:16:31.493Z,93.97
2023-02-08T19:19:01.237Z,94.36
2023-02-08T19:21:30.774Z,94.51
2023-02-08T19:24:00.709Z,94.41
2023-02-08T19:26:39.889Z,95.09
2023-02-08T19:29:14.234Z,95.39
2023-02-08T19:31:42.735Z,95.93
2023-02-08T19:34:12.357Z,95.81
2023-02-08T19:36:49.690Z,96.51
2023-02-08T19:39:22.637Z,96.52
2023-02-08T19:41:52.924Z,96.95
2023-02-08T19:44:22.749Z,97.70
2023-02-08T19:46:55.293Z,97.61
2023-02-08T19:49:26.031Z,97.87
2023-02-08T19:51:54.903Z,97.53
2023-02-08T19:54:23.212Z,97.43
2023-02-08T19:56:54.736Z,97.38
2023-02-08T19:59:29.320Z,97.32
2023-02-08T20:01:58.266Z,97.73
2023-02-08T20:04:26.498Z,97.65
2023-02-08T20:06:54.710Z,97.38
2023-02-08T20:09:22.607Z,97.43
2023-02-08T20:11:59.726Z,97.40
2023-02-08T20:14:31.126Z,97.56
2023-02-08T20:17:00.202Z,97.73
2023-02-08T20:19:29.378Z,98.07
2023-02-08T20:21:57.374Z,98.41
2023-02-08T20:24:25.372Z,98.25
2023-02-08T20:26:53.428Z,98.32
2023-02-08T20:29:21.439Z,98.14
2023-02-08T20:31:55.818Z,98.01
2023-02-08T20:34:24.431Z,97.85
2023-02-08T20:37:06.172Z,97.89
2023-02-08T20:39:36.897Z,97.88
2023-02-08T20:42:05.437Z,97.94
2023-02-08T20:44:33.571Z,98.25
2023-02-08T20:47:01.827Z,98.59
2023-02-08T20:49:32.217Z,98.73
2023-02-08T20:52:00.735Z,99.13
2023-02-08T20:54:28.898Z,99.38
2023-02-08T20:56:57.319Z,99.58
2023-02-08T20:59:25.647Z,99.77
2023-02-08T21:01:53.857Z,99.82
2023-02-08T21:04:26.364Z,99.91
2023-02-08T21:06:54.458Z,99.82
2023-02-08T21:09:22.503Z,99.69
2023-02-08T21:11:51.766Z,99.54
2023-02-08T21:14:23.252Z,99.39
2023-02-08T21:16:55.924Z,99.40
2023-02-08T21:19:25.876Z,99.32
2023-02-08T21:21:58.561Z,99.30
2023-02-08T21:24:27.532Z,99.33
2023-02-08T21:26:56.800Z,99.46
2023-02-08T21:29:25.496Z,99.69
2023-02-08T21:31:54.649Z,99.65
2023-02-08T21:34:23.163Z,99.81
2023-02-08T21:36:51.184Z,99.55
2023-02-08T21:39:19.338Z,99.49
2023-02-08T21:41:48.417Z,99.60
2023-02-08T21:44:16.572Z,99.43
2023-02-08T21:46:44.506Z,99.38
2023-02-08T21:49:31.668Z,99.56
2023-02-08T21:52:18.389Z,99.89
2023-02-08T21:54:53.139Z,100.00
2023-02-08T21:57:24.447Z,99.95
2023-02-08T21:59:56.609Z,99.95
2023-02-08T22:02:28.691Z,99.90
2023-02-08T22:04:59.196Z,99.86
2023-02-08T22:07:28.980Z,99.81
2023-02-08T22:09:58.025Z,99.87
2023-02-08T22:12:25.965Z,99.94
2023-02-08T22:14:53.956Z,99.92
2023-02-08T22:17:21.825Z,99.87
2023-02-08T22:19:49.750Z,99.90
2023-02-08T22:22:17.651Z,99.95
2023-02-08T22:24:45.461Z,100.00
2023-02-08T22:27:13.402Z,100.00
2023-02-08T22:29:41.420Z,100.00
2023-02-08T22:32:10.141Z,100.00
2023-02-08T22:34:38.538Z,100.00
2023-02-08T22:37:06.368Z,99.98
2023-02-08T22:39:35.871Z,99.99
2023-02-08T22:42:08.603Z,100.00
2023-02-08T22:44:36.674Z,100.00
2023-02-08T22:47:08.709Z,100.00
2023-02-08T22:49:37.940Z,100.00
2023-02-08T22:52:08.806Z,100.00
2023-02-08T22:54:36.736Z,100.00
2023-02-08T22:57:06.203Z,100.00
2023-02-08T22:59:34.343Z,100.00
2023-02-08T23:02:02.315Z,100.00
2023-02-08T23:04:31.180Z,100.00
2023-02-08T23:07:00.035Z,100.00
2023-02-08T23:09:27.912Z,100.00
2023-02-08T23:11:56.247Z,100.00
2023-02-08T23:14:24.236Z,100.00
2023-02-08T23:16:52.196Z,100.00
2023-02-08T23:19:20.034Z,100.00
2023-02-08T23:21:48.025Z,100.00
2023-02-08T23:24:15.887Z,100.00
2023-02-08T23:26:43.795Z,100.00
2023-02-08T23:29:11.815Z,100.00
2023-02-08T23:31:41.066Z,100.00
2023-02-08T23:34:11.518Z,100.00
2023-02-08T23:36:39.556Z,100.00
2023-02-08T23:39:08.153Z,100.00
2023-02-08T23:41:36.028Z,100.00
2023-02-08T23:44:04.166Z,100.00
2023-02-08T23:46:32.728Z,100.00
2023-02-08T23:49:00.901Z,100.00
2023-02-08T23:51:28.818Z,100.00
2023-02-08T23:53:56.853Z,100.00
2023-02-08T23:56:32.000Z,100.00
2023-02-08T23:59:00.605Z,100.00
